createdAt,value
2019-04-26T00:02:14.079Z,53.23
2019-04-26T00:04:42.555Z,54.87
2019-04-26T00:07:11.226Z,49.00
2019-04-26T00:09:40.975Z,50.40
2019-04-26T00:12:25.971Z,53.77
2019-04-26T00:15:14.337Z,49.20
2019-04-26T00:17:47.396Z,50.47
2019-04-26T00:20:17.011Z,48.97
2019-04-26T00:22:45.653Z,50.67
2019-04-26T00:25:14.435Z,53.73
2019-04-26T00:27:42.932Z,55.23
2019-04-26T00:30:13.129Z,52.37
2019-04-26T00:32:41.619Z,51.07
2019-04-26T00:35:10.165Z,51.47
2019-04-26T00:37:38.594Z,50.03
2019-04-26T00:40:07.137Z,53.50
2019-04-26T00:42:35.565Z,53.40
2019-04-26T00:45:04.407Z,53.20
2019-04-26T00:47:32.832Z,54.77
2019-04-26T00:50:01.704Z,52.17
2019-04-26T00:52:30.262Z,54.13
2019-04-26T00:54:59.453Z,52.07
2019-04-26T00:57:28.325Z,54.13
2019-04-26T00:59:57.220Z,56.93
2019-04-26T01:02:29.875Z,54.90
2019-04-26T01:04:58.330Z,55.93
2019-04-26T01:07:26.737Z,55.97
2019-04-26T01:09:55.164Z,55.53
2019-04-26T01:12:23.949Z,55.23
2019-04-26T01:14:52.584Z,61.23
2019-04-26T01:17:20.986Z,57.30
2019-04-26T01:19:49.494Z,57.13
2019-04-26T01:22:21.262Z,57.33
2019-04-26T01:24:50.663Z,61.20
2019-04-26T01:27:21.375Z,55.63
2019-04-26T01:29:51.435Z,58.27
2019-04-26T01:32:20.618Z,59.87
2019-04-26T01:34:50.597Z,58.50
2019-04-26T01:37:19.657Z,56.80
2019-04-26T01:39:53.246Z,60.40
2019-04-26T01:42:24.266Z,59.93
2019-04-26T01:44:58.933Z,64.83
2019-04-26T01:47:28.408Z,57.93
2019-04-26T01:49:57.198Z,60.80
2019-04-26T01:52:25.735Z,60.77
2019-04-26T01:54:54.201Z,57.87
2019-04-26T01:57:25.189Z,62.60
2019-04-26T01:59:57.006Z,60.23
2019-04-26T02:02:27.775Z,59.73
2019-04-26T02:04:58.390Z,59.50
2019-04-26T02:07:39.532Z,60.67
2019-04-26T02:10:13.006Z,65.53
2019-04-26T02:12:44.133Z,64.07
2019-04-26T02:15:13.110Z,60.93
2019-04-26T02:17:41.887Z,61.90
2019-04-26T02:20:10.967Z,65.10
2019-04-26T02:22:44.474Z,66.13
2019-04-26T02:25:12.981Z,64.00
2019-04-26T02:27:41.468Z,66.50
2019-04-26T02:30:10.246Z,62.50
2019-04-26T02:32:39.337Z,67.07
2019-04-26T02:35:08.309Z,69.97
2019-04-26T02:37:38.324Z,75.67
2019-04-26T02:40:09.949Z,66.47
2019-04-26T02:42:40.270Z,67.87
2019-04-26T02:45:22.539Z,70.67
2019-04-26T02:48:11.012Z,73.07
2019-04-26T02:50:41.939Z,68.13
2019-04-26T02:53:19.314Z,71.23
2019-04-26T02:55:59.881Z,68.87
2019-04-26T02:58:33.272Z,70.07
2019-04-26T03:01:02.340Z,70.77
2019-04-26T03:03:32.225Z,74.33
2019-04-26T03:06:01.691Z,69.93
2019-04-26T03:08:32.086Z,69.17
2019-04-26T03:11:04.297Z,72.63
2019-04-26T03:13:44.583Z,72.33
2019-04-26T03:16:20.076Z,74.30
2019-04-26T03:18:55.916Z,73.80
2019-04-26T03:21:32.033Z,74.20
2019-04-26T03:24:12.574Z,71.63
2019-04-26T03:26:44.184Z,78.20
2019-04-26T03:29:28.000Z,76.93
2019-04-26T03:32:36.207Z,74.70
2019-04-26T03:35:27.251Z,74.40
2019-04-26T03:38:18.393Z,74.13
2019-04-26T03:41:10.991Z,72.97
2019-04-26T03:43:58.824Z,76.67
2019-04-26T03:46:39.819Z,75.67
2019-04-26T03:49:17.813Z,82.77
2019-04-26T03:52:05.831Z,76.37
2019-04-26T03:54:37.264Z,78.20
2019-04-26T03:57:16.625Z,80.57
2019-04-26T03:59:55.404Z,77.57
2019-04-26T04:02:41.508Z,78.20
2019-04-26T04:05:18.278Z,80.90
2019-04-26T04:07:51.413Z,79.07
2019-04-26T04:10:21.775Z,84.00
2019-04-26T04:12:53.381Z,77.70
2019-04-26T04:15:44.687Z,80.40
2019-04-26T04:18:18.279Z,77.47
2019-04-26T04:21:12.517Z,81.57
2019-04-26T04:23:50.153Z,75.00
2019-04-26T04:26:21.374Z,77.20
2019-04-26T04:29:39.366Z,82.13
2019-04-26T04:31:59.809Z,76.40
2019-04-26T04:34:43.994Z,77.03
2019-04-26T04:37:16.151Z,85.07
2019-04-26T04:39:56.629Z,82.27
2019-04-26T04:42:48.759Z,77.70
2019-04-26T04:45:43.903Z,79.60
2019-04-26T04:48:26.106Z,75.03
2019-04-26T04:51:18.513Z,82.80
2019-04-26T04:53:59.067Z,78.37
2019-04-26T04:56:36.982Z,77.10
2019-04-26T04:59:13.808Z,83.00
2019-04-26T05:02:07.865Z,90.57
2019-04-26T05:04:45.207Z,81.30
2019-04-26T05:07:33.436Z,88.13
2019-04-26T05:10:08.153Z,82.67
2019-04-26T05:12:57.588Z,81.20
2019-04-26T05:15:53.486Z,79.40
2019-04-26T05:18:27.720Z,80.47
2019-04-26T05:21:08.557Z,81.07
2019-04-26T05:23:47.121Z,85.13
2019-04-26T05:26:58.349Z,84.33
2019-04-26T05:29:40.242Z,79.80
2019-04-26T05:32:17.832Z,88.83
2019-04-26T05:34:57.028Z,78.83
2019-04-26T05:37:49.227Z,82.27
2019-04-26T05:40:29.821Z,82.73
2019-04-26T05:43:18.143Z,80.73
2019-04-26T05:46:12.078Z,83.33
2019-04-26T05:49:07.604Z,80.47
2019-04-26T05:52:06.524Z,85.23
2019-04-26T05:54:52.237Z,81.27
2019-04-26T05:57:41.857Z,84.30
2019-04-26T06:00:36.259Z,85.53
2019-04-26T06:03:31.423Z,82.40
2019-04-26T06:06:22.519Z,87.93
2019-04-26T06:09:04.411Z,86.17
2019-04-26T06:11:50.261Z,80.53
2019-04-26T06:14:41.799Z,84.10
2019-04-26T06:17:20.190Z,93.53
2019-04-26T06:20:22.787Z,77.00
2019-04-26T06:22:53.716Z,87.97
2019-04-26T06:25:28.408Z,81.87
2019-04-26T06:28:02.763Z,76.47
2019-04-26T06:30:44.968Z,75.90
2019-04-26T06:33:10.573Z,77.97
2019-04-26T06:35:41.115Z,75.40
2019-04-26T06:38:20.178Z,76.23
2019-04-26T06:41:21.400Z,81.00
2019-04-26T06:44:00.396Z,77.00
2019-04-26T06:46:55.128Z,76.93
2019-04-26T06:49:38.130Z,77.03
2019-04-26T06:52:12.915Z,79.57
2019-04-26T06:55:16.297Z,71.80
2019-04-26T06:58:04.932Z,76.27
2019-04-26T07:01:01.960Z,71.30
2019-04-26T07:03:59.693Z,73.80
2019-04-26T07:07:02.874Z,73.60
2019-04-26T07:09:37.510Z,73.67
2019-04-26T07:12:28.997Z,70.20
2019-04-26T07:15:12.379Z,71.37
2019-04-26T07:18:17.465Z,74.37
2019-04-26T07:21:05.535Z,72.57
2019-04-26T07:24:01.197Z,67.93
2019-04-26T07:26:54.664Z,72.27
2019-04-26T07:29:41.260Z,69.07
2019-04-26T07:32:12.937Z,66.53
2019-04-26T07:34:55.621Z,66.60
2019-04-26T07:38:01.293Z,65.43
2019-04-26T07:40:54.271Z,70.00
2019-04-26T07:43:56.251Z,63.93
2019-04-26T07:46:43.271Z,59.17
2019-04-26T07:49:23.524Z,58.27
2019-04-26T07:52:04.340Z,60.77
2019-04-26T07:55:09.265Z,53.50
2019-04-26T07:57:55.948Z,54.27
2019-04-26T08:00:29.174Z,59.17
2019-04-26T08:03:15.019Z,56.30
2019-04-26T08:05:53.389Z,54.97
2019-04-26T08:08:24.993Z,50.30
2019-04-26T08:11:04.405Z,54.87
2019-04-26T08:13:34.750Z,51.07
2019-04-26T08:16:08.513Z,54.20
2019-04-26T08:18:41.933Z,49.70
2019-04-26T08:21:17.379Z,52.50
2019-04-26T08:23:52.494Z,52.70
2019-04-26T08:26:22.781Z,47.70
2019-04-26T08:28:51.980Z,50.60
2019-04-26T08:31:24.416Z,49.10
2019-04-26T08:33:54.398Z,49.83
2019-04-26T08:36:27.143Z,49.37
2019-04-26T08:38:55.007Z,51.13
2019-04-26T08:41:23.779Z,51.67
2019-04-26T08:44:11.142Z,49.70
2019-04-26T08:46:43.133Z,47.07
2019-04-26T08:49:17.599Z,46.73
2019-04-26T08:51:46.614Z,47.03
2019-04-26T08:54:20.870Z,45.47
2019-04-26T08:56:52.450Z,45.37
2019-04-26T08:59:25.839Z,45.63
2019-04-26T09:01:57.158Z,46.13
2019-04-26T09:04:28.116Z,43.27
2019-04-26T09:07:01.190Z,45.40
2019-04-26T09:09:32.437Z,46.90
2019-04-26T09:12:08.187Z,43.87
2019-04-26T09:14:35.853Z,46.07
2019-04-26T09:17:04.814Z,44.10
2019-04-26T09:19:33.221Z,44.53
2019-04-26T09:22:13.537Z,46.50
2019-04-26T09:24:46.330Z,41.27
2019-04-26T09:27:17.133Z,45.83
2019-04-26T09:30:05.016Z,41.90
2019-04-26T09:32:34.647Z,43.70
2019-04-26T09:35:03.084Z,46.17
2019-04-26T09:37:31.489Z,45.63
2019-04-26T09:40:09.679Z,49.30
2019-04-26T09:42:39.375Z,45.30
2019-04-26T09:45:09.770Z,45.80
2019-04-26T09:47:42.749Z,44.73
2019-04-26T09:50:15.351Z,45.57
2019-04-26T09:52:50.407Z,43.33
2019-04-26T09:55:18.809Z,44.17
2019-04-26T09:57:47.244Z,43.87
2019-04-26T10:00:20.695Z,44.50
2019-04-26T10:02:49.126Z,46.00
2019-04-26T10:05:22.055Z,43.20
2019-04-26T10:07:47.751Z,47.53
2019-04-26T10:10:23.027Z,44.10
2019-04-26T10:12:52.411Z,46.07
2019-04-26T10:15:28.284Z,43.93
2019-04-26T10:17:56.749Z,44.33
2019-04-26T10:20:25.155Z,45.37
2019-04-26T10:22:53.581Z,50.57
2019-04-26T10:25:22.050Z,40.40
2019-04-26T10:27:50.549Z,44.33
2019-04-26T10:30:19.023Z,41.27
2019-04-26T10:32:47.458Z,44.33
2019-04-26T10:35:17.524Z,42.47
2019-04-26T10:37:48.207Z,41.57
2019-04-26T10:40:16.425Z,47.00
2019-04-26T10:42:44.850Z,43.10
2019-04-26T10:45:14.841Z,41.80
2019-04-26T10:47:44.187Z,45.80
2019-04-26T10:50:12.756Z,42.47
2019-04-26T10:52:53.423Z,47.90
2019-04-26T10:55:20.376Z,44.70
2019-04-26T10:57:52.932Z,44.83
2019-04-26T11:00:38.298Z,45.27
2019-04-26T11:03:06.725Z,43.23
2019-04-26T11:05:35.197Z,45.00
2019-04-26T11:08:03.870Z,43.30
2019-04-26T11:10:32.544Z,42.53
2019-04-26T11:13:01.046Z,43.43
2019-04-26T11:15:32.788Z,42.37
2019-04-26T11:17:59.610Z,46.17
2019-04-26T11:20:28.007Z,56.17
2019-04-26T11:22:56.438Z,43.37
2019-04-26T11:25:28.286Z,42.70
2019-04-26T11:27:55.002Z,47.13
2019-04-26T11:30:23.473Z,47.83
2019-04-26T11:32:51.918Z,57.20
2019-04-26T11:35:20.413Z,44.97
2019-04-26T11:37:50.762Z,43.97
2019-04-26T11:40:19.020Z,46.60
2019-04-26T11:42:47.462Z,44.47
2019-04-26T11:45:17.585Z,45.33
2019-04-26T11:47:55.894Z,45.37
2019-04-26T11:50:16.558Z,43.17
2019-04-26T11:52:46.235Z,41.77
2019-04-26T11:55:15.019Z,43.30
2019-04-26T11:57:47.007Z,43.60
2019-04-26T12:00:15.680Z,49.60
2019-04-26T12:02:46.278Z,56.13
2019-04-26T12:05:25.073Z,45.67
2019-04-26T12:07:57.869Z,44.30
2019-04-26T12:10:27.252Z,44.67
2019-04-26T12:13:05.157Z,43.80
2019-04-26T12:15:30.423Z,49.70
2019-04-26T12:17:58.605Z,49.50
2019-04-26T12:20:26.801Z,46.50
2019-04-26T12:22:56.420Z,42.90
2019-04-26T12:25:24.847Z,45.10
2019-04-26T12:27:53.687Z,44.10
2019-04-26T12:30:26.353Z,43.87
2019-04-26T12:32:52.418Z,46.40
2019-04-26T12:35:20.821Z,47.43
2019-04-26T12:37:50.596Z,44.67
2019-04-26T12:40:19.589Z,44.33
2019-04-26T12:42:48.390Z,45.47
2019-04-26T12:45:35.435Z,44.43
2019-04-26T12:48:17.824Z,46.00
2019-04-26T12:50:46.269Z,47.23
2019-04-26T12:53:14.669Z,43.30
2019-04-26T12:55:43.099Z,48.43
2019-04-26T12:58:15.195Z,44.77
2019-04-26T13:00:53.235Z,47.13
2019-04-26T13:03:20.156Z,41.70
2019-04-26T13:05:41.974Z,44.50
2019-04-26T13:08:13.207Z,44.77
2019-04-26T13:10:44.825Z,41.33
2019-04-26T13:13:23.021Z,45.27
2019-04-26T13:16:02.130Z,43.83
2019-04-26T13:18:31.478Z,43.90
2019-04-26T13:21:02.987Z,45.93
2019-04-26T13:23:31.266Z,44.33
2019-04-26T13:26:01.424Z,50.10
2019-04-26T13:28:30.173Z,48.90
2019-04-26T13:30:58.591Z,46.47
2019-04-26T13:33:27.935Z,43.73
2019-04-26T13:36:04.395Z,44.87
2019-04-26T13:38:27.285Z,47.20
2019-04-26T13:40:59.444Z,41.30
2019-04-26T13:43:27.092Z,53.53
2019-04-26T13:45:57.699Z,47.80
2019-04-26T13:48:43.626Z,47.53
2019-04-26T13:51:14.151Z,48.50
2019-04-26T13:53:42.559Z,44.80
2019-04-26T13:56:10.957Z,40.47
2019-04-26T13:58:39.394Z,47.47
2019-04-26T14:01:09.066Z,41.97
2019-04-26T14:03:37.496Z,40.67
2019-04-26T14:06:05.969Z,43.73
2019-04-26T14:08:34.400Z,42.77
2019-04-26T14:11:02.809Z,47.23
2019-04-26T14:13:31.234Z,42.77
2019-04-26T14:15:59.644Z,45.40
2019-04-26T14:18:28.214Z,45.93
2019-04-26T14:20:59.023Z,48.40
2019-04-26T14:23:45.363Z,53.00
2019-04-26T14:26:35.316Z,46.27
2019-04-26T14:29:01.832Z,45.87
2019-04-26T14:31:30.243Z,45.30
2019-04-26T14:34:01.214Z,42.40
2019-04-26T14:36:28.866Z,45.27
2019-04-26T14:39:05.687Z,43.87
2019-04-26T14:41:27.487Z,42.87
2019-04-26T14:43:56.840Z,44.13
2019-04-26T14:46:25.419Z,44.57
2019-04-26T14:49:01.819Z,42.87
2019-04-26T14:51:23.971Z,40.80
2019-04-26T14:53:52.407Z,43.40
2019-04-26T14:56:24.593Z,43.07
2019-04-26T14:58:52.259Z,42.00
2019-04-26T15:01:22.529Z,43.90
2019-04-26T15:04:08.773Z,43.20
2019-04-26T15:06:38.816Z,44.33
2019-04-26T15:09:17.035Z,43.70
2019-04-26T15:11:37.391Z,42.87
2019-04-26T15:14:05.882Z,46.37
2019-04-26T15:16:34.286Z,46.40
2019-04-26T15:19:06.319Z,44.00
2019-04-26T15:21:34.339Z,42.87
2019-04-26T15:24:04.966Z,44.40
2019-04-26T15:26:33.074Z,42.70
2019-04-26T15:29:02.469Z,43.30
2019-04-26T15:31:33.084Z,42.57
2019-04-26T15:34:03.249Z,42.60
2019-04-26T15:36:31.840Z,43.97
2019-04-26T15:39:02.695Z,46.30
2019-04-26T15:41:33.242Z,44.33
2019-04-26T15:44:03.923Z,44.77
2019-04-26T15:46:50.027Z,46.33
2019-04-26T15:49:20.079Z,42.40
2019-04-26T15:51:48.486Z,43.77
2019-04-26T15:54:17.841Z,46.20
2019-04-26T15:56:49.363Z,45.00
2019-04-26T15:59:18.341Z,43.90
2019-04-26T16:01:49.248Z,44.23
2019-04-26T16:04:18.428Z,46.40
2019-04-26T16:06:46.972Z,43.97
2019-04-26T16:09:19.840Z,45.23
2019-04-26T16:11:49.571Z,48.27
2019-04-26T16:14:15.800Z,44.27
2019-04-26T16:16:44.232Z,43.90
2019-04-26T16:19:13.078Z,45.17
2019-04-26T16:21:42.580Z,49.60
2019-04-26T16:24:12.826Z,45.60
2019-04-26T16:26:44.522Z,44.43
2019-04-26T16:29:18.405Z,45.80
2019-04-26T16:31:47.137Z,45.47
2019-04-26T16:34:17.169Z,49.97
2019-04-26T16:36:45.613Z,52.47
2019-04-26T16:39:14.388Z,49.43
2019-04-26T16:41:42.815Z,48.37
2019-04-26T16:44:12.885Z,48.93
2019-04-26T16:46:43.491Z,50.30
2019-04-26T16:49:14.065Z,53.37
2019-04-26T16:51:43.656Z,52.57
2019-04-26T16:54:21.238Z,52.23
2019-04-26T16:56:43.860Z,52.67
2019-04-26T16:59:14.376Z,49.30
2019-04-26T17:01:47.158Z,49.93
2019-04-26T17:04:14.128Z,48.07
2019-04-26T17:06:44.815Z,48.30
2019-04-26T17:09:14.329Z,46.77
2019-04-26T17:11:43.578Z,50.10
2019-04-26T17:14:13.198Z,48.90
2019-04-26T17:16:44.026Z,50.60
2019-04-26T17:19:13.671Z,48.57
2019-04-26T17:21:44.029Z,48.57
2019-04-26T17:24:26.352Z,49.47
2019-04-26T17:26:59.107Z,51.87
2019-04-26T17:29:27.514Z,52.40
2019-04-26T17:31:55.948Z,47.17
2019-04-26T17:34:28.984Z,53.97
2019-04-26T17:36:54.523Z,48.47
2019-04-26T17:39:22.936Z,48.10
2019-04-26T17:41:54.258Z,48.17
2019-04-26T17:44:26.455Z,46.23
2019-04-26T17:46:56.359Z,49.27
2019-04-26T17:49:27.114Z,51.63
2019-04-26T17:51:57.826Z,50.77
2019-04-26T17:54:41.649Z,51.93
2019-04-26T17:56:52.284Z,49.03
2019-04-26T17:59:31.398Z,54.50
2019-04-26T18:01:57.318Z,51.80
2019-04-26T18:04:31.983Z,51.77
2019-04-26T18:06:57.821Z,50.27
2019-04-26T18:09:38.995Z,55.07
2019-04-26T18:11:55.365Z,52.17
2019-04-26T18:14:25.544Z,49.70
2019-04-26T18:16:57.183Z,51.43
2019-04-26T18:19:30.362Z,52.00
2019-04-26T18:22:12.965Z,48.13
2019-04-26T18:24:43.167Z,49.30
2019-04-26T18:27:11.711Z,48.33
2019-04-26T18:29:40.118Z,52.17
2019-04-26T18:32:08.765Z,49.30
2019-04-26T18:34:40.439Z,51.00
2019-04-26T18:37:07.633Z,48.10
2019-04-26T18:39:36.207Z,48.60
2019-04-26T18:42:05.972Z,48.60
2019-04-26T18:44:38.960Z,48.03
2019-04-26T18:47:06.532Z,52.70
2019-04-26T18:49:34.943Z,47.07
2019-04-26T18:52:03.760Z,48.80
2019-04-26T18:54:34.648Z,46.10
2019-04-26T18:57:03.404Z,46.30
2019-04-26T18:59:31.796Z,46.17
2019-04-26T19:02:00.208Z,47.57
2019-04-26T19:04:28.650Z,46.47
2019-04-26T19:06:57.129Z,47.73
2019-04-26T19:09:26.999Z,44.70
2019-04-26T19:11:56.193Z,45.37
2019-04-26T19:14:49.233Z,43.57
2019-04-26T19:17:31.773Z,47.07
2019-04-26T19:20:18.868Z,48.60
2019-04-26T19:22:50.412Z,47.13
2019-04-26T19:25:23.127Z,43.37
2019-04-26T19:27:50.309Z,43.67
2019-04-26T19:30:21.460Z,43.03
2019-04-26T19:32:52.012Z,43.10
2019-04-26T19:35:21.778Z,44.00
2019-04-26T19:37:51.804Z,43.07
2019-04-26T19:40:20.400Z,43.10
2019-04-26T19:42:51.372Z,44.90
2019-04-26T19:45:39.544Z,43.60
2019-04-26T19:48:15.823Z,44.27
2019-04-26T19:50:58.043Z,47.27
2019-04-26T19:53:36.581Z,44.97
2019-04-26T19:56:06.700Z,46.87
2019-04-26T19:58:36.770Z,45.40
2019-04-26T20:01:05.311Z,50.30
2019-04-26T20:03:33.993Z,50.17
2019-04-26T20:06:02.444Z,46.50
2019-04-26T20:08:35.475Z,48.00
2019-04-26T20:11:01.436Z,46.67
2019-04-26T20:13:31.565Z,45.10
2019-04-26T20:16:02.678Z,46.77
2019-04-26T20:18:34.417Z,47.30
2019-04-26T20:21:02.381Z,48.60
2019-04-26T20:23:31.725Z,50.37
2019-04-26T20:26:06.930Z,52.47
2019-04-26T20:28:34.251Z,50.37
2019-04-26T20:31:07.669Z,53.87
2019-04-26T20:33:35.092Z,55.80
2019-04-26T20:36:04.825Z,57.10
2019-04-26T20:38:42.129Z,55.73
2019-04-26T20:41:03.621Z,54.70
2019-04-26T20:43:32.219Z,57.40
2019-04-26T20:46:13.771Z,58.07
2019-04-26T20:48:33.072Z,69.27
2019-04-26T20:51:02.214Z,66.50
2019-04-26T20:53:40.107Z,66.07
2019-04-26T20:56:03.820Z,63.97
2019-04-26T20:58:31.232Z,64.50
2019-04-26T21:01:01.364Z,67.67
2019-04-26T21:03:29.956Z,65.00
2019-04-26T21:06:00.573Z,63.30
2019-04-26T21:08:28.605Z,64.07
2019-04-26T21:11:00.211Z,61.80
2019-04-26T21:13:30.758Z,64.20
2019-04-26T21:15:58.707Z,63.03
2019-04-26T21:18:27.547Z,65.50
2019-04-26T21:20:55.977Z,63.00
2019-04-26T21:23:24.396Z,60.83
2019-04-26T21:26:14.733Z,62.07
2019-04-26T21:28:42.667Z,63.37
2019-04-26T21:31:13.469Z,61.63
2019-04-26T21:33:43.516Z,62.77
2019-04-26T21:36:25.840Z,63.97
2019-04-26T21:38:59.400Z,64.43
2019-04-26T21:41:34.993Z,68.83
2019-04-26T21:44:03.407Z,66.67
2019-04-26T21:46:33.507Z,67.50
2019-04-26T21:49:03.591Z,70.30
2019-04-26T21:51:33.859Z,73.10
2019-04-26T21:54:03.850Z,68.73
2019-04-26T21:56:33.770Z,64.97
2019-04-26T21:59:03.682Z,73.60
2019-04-26T22:01:33.106Z,73.90
2019-04-26T22:04:03.005Z,76.97
2019-04-26T22:06:33.471Z,75.83
2019-04-26T22:09:09.129Z,77.03
2019-04-26T22:11:37.560Z,77.23
2019-04-26T22:14:07.614Z,81.10
2019-04-26T22:16:38.173Z,78.30
2019-04-26T22:19:23.987Z,82.00
2019-04-26T22:21:59.308Z,82.57
2019-04-26T22:24:30.048Z,85.67
2019-04-26T22:26:58.481Z,89.90
2019-04-26T22:29:26.893Z,87.43
2019-04-26T22:31:55.332Z,88.43
2019-04-26T22:34:23.740Z,85.97
2019-04-26T22:36:53.684Z,86.00
2019-04-26T22:39:22.804Z,80.37
2019-04-26T22:41:53.425Z,75.57
2019-04-26T22:44:34.413Z,74.70
2019-04-26T22:47:07.407Z,75.70
2019-04-26T22:49:41.773Z,74.97
2019-04-26T22:52:10.378Z,79.93
2019-04-26T22:54:37.723Z,83.37
2019-04-26T22:57:08.233Z,79.30
2019-04-26T22:59:38.098Z,78.97
2019-04-26T23:02:08.478Z,79.97
2019-04-26T23:04:36.916Z,76.80
2019-04-26T23:07:06.965Z,78.03
2019-04-26T23:09:35.406Z,78.87
2019-04-26T23:12:05.792Z,79.03
2019-04-26T23:14:41.671Z,77.63
2019-04-26T23:17:14.446Z,84.00
2019-04-26T23:19:44.794Z,75.30
2019-04-26T23:22:13.268Z,78.27
2019-04-26T23:24:42.789Z,77.20
2019-04-26T23:27:14.868Z,78.23
2019-04-26T23:29:43.568Z,84.70
2019-04-26T23:32:18.351Z,83.63
2019-04-26T23:34:44.193Z,73.10
2019-04-26T23:37:13.147Z,68.50
2019-04-26T23:39:44.488Z,68.77
2019-04-26T23:42:12.332Z,65.50
2019-04-26T23:44:43.925Z,69.40
2019-04-26T23:47:20.509Z,70.97
2019-04-26T23:49:43.362Z,72.70
2019-04-26T23:52:14.430Z,65.80
2019-04-26T23:54:42.128Z,66.90
2019-04-26T23:57:10.541Z,63.77
2019-04-26T23:59:39.348Z,67.07
